• Join FlightAware (Why Join?)
  • Login
  • US Flag 
12:55PM EDT


 

Airport Tracker/Info


-or-


 

Live Flight TrackerFlight Track Log ✈ DAL3982 ✈ 29-Apr-2013 ✈ KATL - CYUL

Flight Track Log - Related Links

Times and Time Zones

All times are in EDT time to prevent confusion due to time zone crossing. See the DAL3982 flight status page for this flight to view local times or setup timezone preferences in your user account.

Time Position Orientation Groundspeed Altitude Reporting Facility
EDT Latitude Longitude Course Direction KTS MPH feet Rate Location/Type
09:02PM 33.6500 -84.4667 North 179 206 2,300  Level Atlanta TRACON
09:03PM 33.6833 -84.5500 296° West 258 297 4,300 2,340 Climbing Atlanta TRACON
09:05PM 33.8130 -84.1667 North  Level FlightAware Approximate
09:05PM 33.7500 -84.5833 337° Northwest 283 326 7,500  Level Atlanta TRACON
09:06PM 33.9058 -84.2391 320° Northwest  Level FlightAware Approximate
09:06PM 33.8333 -84.5500 18° North 297 342 10,300  Level Atlanta TRACON
09:06PM 33.8769 -84.4917 48° Northeast 312 359 11,200 1,500 Climbing Atlanta Center
09:07PM 34.0121 -84.2667 North  Level FlightAware Approximate
09:07PM 33.9439 -84.3994 49° Northeast 356 410 13,100  Level Atlanta Center
09:08PM 34.1267 -84.2667 North  Level FlightAware Approximate
09:08PM 34.0358 -84.3647 17° North 351 404 14,600  Level Atlanta Center
09:09PM 34.1528 -84.3275 15° North 365 420 16,300 1,800 Climbing Atlanta Center
09:10PM 34.2636 -84.2925 15° North 407 468 18,200 1,800 Climbing Atlanta Center
09:11PM 34.3742 -84.2628 13° North 407 468 19,900 1,440 Climbing Atlanta Center
09:12PM 34.4911 -84.2353 11° North 412 474 21,100 1,200 Climbing Atlanta Center
09:13PM 34.6081 -84.2053 12° North 422 486 22,400 1,200 Climbing Atlanta Center
09:14PM 34.7125 -84.1853 North 422 486 23,600 1,080 Climbing Atlanta Center
09:15PM 34.8336 -84.1553 11° North 432 497 24,600 960 Climbing Atlanta Center
09:16PM 34.9567 -84.1250 11° North 437 503 25,600 1,020 Climbing Atlanta Center
09:17PM 35.0819 -84.0947 11° North 449 517 26,700 960 Climbing Atlanta Center
09:18PM 35.2092 -84.0667 10° North 454 522 27,600 1,080 Climbing Atlanta Center
09:19PM 35.3344 -84.0336 12° North 454 522 28,900 1,260 Climbing Atlanta Center
09:20PM 35.4575 -84.0031 11° North 454 522 30,200 1,140 Climbing Atlanta Center
09:21PM 35.5828 -83.9750 10° North 449 517 31,200 960 Climbing Atlanta Center
09:22PM 35.7078 -83.9442 11° North 449 517 32,200 960 Climbing Atlanta Center
09:23PM 35.8308 -83.9158 11° North 449 517 33,200 960 Climbing Atlanta Center
09:24PM 35.9517 -83.8669 18° North 449 517 34,200 900 Climbing Atlanta Center
09:25PM 36.0622 -83.7972 27° Northeast 443 510 35,000 360 Climbing Atlanta Center
09:26PM 36.1747 -83.7275 27° Northeast 443 510 35,000  Level Atlanta Center
09:28PM 36.3681 -83.6008 28° Northeast 450 518 35,000  Level Indianapolis Center
09:29PM 36.4819 -83.5281 27° Northeast 458 527 35,000  Level Indianapolis Center
09:30PM 36.6075 -83.4503 26° Northeast 461 531 35,000  Level Indianapolis Center
09:31PM 36.7214 -83.3775 27° Northeast 457 526 35,000  Level Indianapolis Center
09:32PM 36.8356 -83.3033 27° Northeast 456 525 35,000  Level Indianapolis Center
09:33PM 36.9508 -83.2297 27° Northeast 459 528 35,000  Level Indianapolis Center
09:34PM 37.0656 -83.1547 28° Northeast 458 527 35,000  Level Indianapolis Center
09:35PM 37.1817 -83.0789 27° Northeast 464 534 35,000  Level Indianapolis Center
09:36PM 37.2950 -83.0039 28° Northeast 460 529 35,000  Level Indianapolis Center
09:37PM 37.4089 -82.9286 28° Northeast 461 531 35,000  Level Indianapolis Center
09:38PM 37.5222 -82.8544 27° Northeast 459 528 35,000  Level Indianapolis Center
09:39PM 37.6353 -82.7817 27° Northeast 456 525 35,000  Level Indianapolis Center
09:40PM 37.7478 -82.7061 28° Northeast 455 524 35,000  Level Indianapolis Center
09:41PM 37.8597 -82.6314 28° Northeast 454 522 35,000  Level Indianapolis Center
09:42PM 37.9900 -82.5444 28° Northeast 453 521 35,000  Level Indianapolis Center
09:43PM 38.1008 -82.4694 28° Northeast 453 521 35,000  Level Indianapolis Center
09:44PM 38.2131 -82.3931 28° Northeast 454 522 35,000  Level Indianapolis Center
09:45PM 38.3244 -82.3189 28° Northeast 451 519 35,000  Level Indianapolis Center
09:47PM 38.4358 -82.2433 28° Northeast 452 520 35,000  Level Indianapolis Center
09:48PM 38.5486 -82.1669 28° Northeast 455 524 35,000  Level Indianapolis Center
09:49PM 38.6614 -82.0908 28° Northeast 455 524 35,000  Level Indianapolis Center
09:50PM 38.7742 -82.0106 29° Northeast 458 527 35,000  Level Indianapolis Center
09:51PM 38.8836 -81.9175 33° Northeast 464 534 35,000  Level Indianapolis Center
09:52PM 38.9925 -81.8256 33° Northeast 464 534 35,000  Level Indianapolis Center
09:53PM 39.1006 -81.7325 34° Northeast 462 532 35,000  Level Indianapolis Center
09:54PM 39.2106 -81.6394 33° Northeast 469 540 35,000  Level Indianapolis Center
09:55PM 39.3186 -81.5464 34° Northeast 466 536 35,000  Level Indianapolis Center
09:56PM 39.4253 -81.4533 34° Northeast 462 532 35,000  Level Indianapolis Center
09:58PM 39.5609 -81.3214 37° Northeast  Level FlightAware Approximate
09:58PM 39.6344 -81.2544 37° Northeast 467 537 35,000  Level Indianapolis Center
09:58PM 39.6861 -81.2008 39° Northeast 475 547 35,000  Level Cleveland Center
09:59PM 39.7847 -81.0908 41° Northeast 468 539 35,000  Level Cleveland Center
10:00PM 39.8831 -80.9836 40° Northeast 468 539 35,000  Level Cleveland Center
10:01PM 39.9833 -80.8731 40° Northeast 463 533 35,000  Level Cleveland Center
10:02PM 40.0794 -80.7647 41° Northeast 463 533 35,000  Level Cleveland Center
10:03PM 40.1775 -80.6564 40° Northeast 457 526 35,000  Level Cleveland Center
10:04PM 40.2756 -80.5478 40° Northeast 457 526 35,000  Level Cleveland Center
10:05PM 40.3736 -80.4358 41° Northeast 457 526 35,000  Level Cleveland Center
10:06PM 40.4692 -80.3267 41° Northeast 452 520 35,000  Level Cleveland Center
10:07PM 40.5669 -80.2197 40° Northeast 452 520 35,000  Level Cleveland Center
10:08PM 40.6644 -80.1069 41° Northeast 452 520 35,000  Level Cleveland Center
10:09PM 40.7597 -79.9964 41° Northeast 452 520 35,000  Level Cleveland Center
10:10PM 40.8531 -79.8886 41° Northeast 463 533 35,000  Level Cleveland Center
10:11PM 40.9461 -79.7806 41° Northeast 463 533 35,000  Level Cleveland Center
10:12PM 41.0453 -79.6664 41° Northeast 463 533 35,000  Level Cleveland Center
10:13PM 41.1425 -79.5547 41° Northeast 463 533 35,000  Level Cleveland Center
10:14PM 41.2392 -79.4400 42° Northeast 463 533 35,000  Level Cleveland Center
10:15PM 41.3361 -79.3275 41° Northeast 463 533 35,000  Level Cleveland Center
10:16PM 41.4411 -79.2039 41° Northeast 463 533 35,000  Level Cleveland Center
10:17PM 41.5375 -79.0908 41° Northeast 463 533 35,000  Level Cleveland Center
10:18PM 41.6319 -78.9775 42° Northeast 463 533 35,000  Level Cleveland Center
10:19PM 41.7242 -78.8667 42° Northeast 458 527 35,000  Level Cleveland Center
10:20PM 41.8203 -78.7525 41° Northeast 458 527 35,000  Level Cleveland Center
10:21PM 41.9144 -78.6383 42° Northeast 453 521 35,000  Level Cleveland Center
10:22PM 42.0083 -78.5264 42° Northeast 453 521 35,000  Level Cleveland Center
10:23PM 42.1042 -78.4114 42° Northeast 453 521 35,000  Level Cleveland Center
10:24PM 42.1978 -78.2961 42° Northeast 453 521 35,000  Level Cleveland Center
10:25PM 42.2914 -78.1861 41° Northeast 453 521 35,000  Level Cleveland Center
10:26PM 42.3828 -78.0700 43° Northeast 453 521 35,000  Level Cleveland Center
10:27PM 42.4761 -77.9539 43° Northeast 453 521 35,000  Level Cleveland Center
10:28PM 42.5672 -77.8428 42° Northeast 448 516 35,000  Level Cleveland Center
10:29PM 42.6525 -77.7403 41° Northeast 448 516 35,000  Level Cleveland Center
10:30PM 42.7433 -77.6231 43° Northeast 448 516 35,000  Level Cleveland Center
10:31PM 42.8361 -77.5083 42° Northeast 449 517 35,000  Level Cleveland Center
10:33PM 43.0344 -77.2558 43° Northeast 434 499 35,000  Level Boston Center
10:34PM 43.1247 -77.1406 43° Northeast 440 506 35,000  Level Boston Center
10:35PM 43.2169 -77.0250 42° Northeast 440 506 35,000  Level Boston Center
10:36PM 43.3092 -76.9092 42° Northeast 440 506 35,000  Level Boston Center
10:37PM 43.3833 -76.8000 47° Northeast 460 529 35,000 -60 Level Montreal Center
10:38PM 43.4833 -76.6833 40° Northeast 460 529 34,900 -600 Descending Montreal Center
10:39PM 43.5833 -76.5500 44° Northeast 450 518 33,800 -1,020 Descending Montreal Center
10:40PM 43.6667 -76.4333 45° Northeast 450 518 32,900 -960 Descending Montreal Center
10:41PM 43.7500 -76.3167 45° Northeast 460 529 31,900 -1,020 Descending Montreal Center
10:42PM 43.8500 -76.1833 44° Northeast 470 541 30,900 -1,020 Descending Montreal Center
10:43PM 43.9333 -76.0667 45° Northeast 460 529 29,900 -1,080 Descending Montreal Center
10:44PM 44.0333 -75.9500 40° Northeast 460 529 28,800 -960 Descending Montreal Center
10:45PM 44.1167 -75.8333 45° Northeast 450 518 28,000 -420 Descending Montreal Center
10:46PM 44.2167 -75.7167 40° Northeast 450 518 28,000  Level Montreal Center
10:47PM 44.3167 -75.6000 40° Northeast 450 518 28,000  Level Montreal Center
10:48PM 44.4000 -75.4500 52° Northeast 460 529 28,000  Level Montreal Center
10:49PM 44.5000 -75.3333 40° Northeast 450 518 28,000  Level Montreal Center
10:50PM 44.6000 -75.2167 40° Northeast 460 529 28,000  Level Montreal Center
10:51PM 44.6833 -75.1000 45° Northeast 450 518 28,000 -420 Level Montreal Center
10:52PM 44.7833 -74.9833 40° Northeast 450 518 27,200 -1,680 Descending Montreal Center
10:53PM 44.8667 -74.8500 49° Northeast 460 529 24,700 -2,460 Descending Montreal Center
10:54PM 44.9500 -74.7333 45° Northeast 450 518 22,300 -2,580 Descending Montreal Center
10:55PM 45.0500 -74.6167 39° Northeast 440 506 19,600 -2,400 Descending Montreal Center
10:56PM 45.1333 -74.5000 45° Northeast 430 495 17,600 -2,100 Descending Montreal Center
10:57PM 45.2167 -74.3833 45° Northeast 400 460 15,500 -2,160 Descending Montreal Center
10:58PM 45.2667 -74.2500 62° Northeast 390 449 13,300 -2,340 Descending Montreal Center
10:59PM 45.3333 -74.1333 51° Northeast 370 426 10,900 -1,800 Descending Montreal Center
11:00PM 45.3833 -74.0333 55° Northeast 310 357 9,800 -1,620 Descending Montreal Center
11:01PM 45.4333 -73.9667 43° Northeast 290 334 7,700 -1,920 Descending Montreal Center
11:02PM 45.5000 -73.8667 46° Northeast 290 334 6,000 -900 Descending Montreal Center
11:03PM 45.5500 -73.7833 49° Northeast 280 322 6,000 -600 Level Montreal Center
11:04PM 45.6000 -73.7167 43° Northeast 260 299 4,900 -1,260 Descending Montreal Center
11:05PM 45.6333 -73.6500 54° Northeast 220 253 3,500 -960 Descending Montreal Center
11:06PM 45.6000 -73.5667 120° Southeast 190 219 3,000 -480 Descending Montreal Center
11:07PM 45.5500 -73.6167 215° Southwest 180 207 2,600 -720 Descending Montreal Center
11:08PM 45.5167 -73.6500 215° Southwest 160 184 1,600 -900 Descending Montreal Center
11:09PM 45.5000 -73.7000 245° Southwest 140 161 800 -780 Descending Montreal Center
11:10PM 45.4667 -73.7167 199° South 120 138 100 -360 Descending Montreal Center
11:11PM 45.4500 -73.7500 235° Southwest 30 35 100  Level Montreal Center